Terminal Aerodrome Forecast
Issued by NWS Charleston, WV

Current Version | Previous Version | Text Only | Print | Product List | Glossary Off
Versions: 1 2 3 4 5 6 7 8 9 10 11 12 13 14 15 16 17 18 19 20 21 22 23 24

000
FTUS41 KRLX 101100
TAFCRW
TAF
KCRW 101137Z 1012/1112 00000KT 4SM BR FEW001 BKN070 BKN100
     FM101230 00000KT 6SM BR BKN050
     FM101500 00000KT P6SM SCT060
     FM101800 31004KT P6SM SCT050
     FM110500 00000KT 6SM BR SCT200=

USA.gov is the U.S. government's official web portal to all federal, state and local government web resources and services.